createdAt,value
2018-03-21T00:01:23.196Z,16.23
2018-03-21T00:03:49.823Z,15.38
2018-03-21T00:06:16.470Z,15.13
2018-03-21T00:08:43.092Z,16.45
2018-03-21T00:11:09.792Z,16.80
2018-03-21T00:13:36.536Z,15.30
2018-03-21T00:16:03.164Z,15.65
2018-03-21T00:18:29.920Z,16.67
2018-03-21T00:20:56.612Z,15.38
2018-03-21T00:23:23.244Z,15.85
2018-03-21T00:25:49.883Z,15.60
2018-03-21T00:28:16.508Z,18.10
2018-03-21T00:30:43.212Z,16.02
2018-03-21T00:33:09.880Z,16.95
2018-03-21T00:35:36.514Z,15.75
2018-03-21T00:38:03.209Z,16.23
2018-03-21T00:40:29.872Z,16.08
2018-03-21T00:42:56.516Z,17.12
2018-03-21T00:45:23.148Z,15.52
2018-03-21T00:47:49.788Z,16.90
2018-03-21T00:50:16.524Z,16.62
2018-03-21T00:52:43.154Z,17.17
2018-03-21T00:55:09.794Z,16.17
2018-03-21T00:57:36.455Z,15.98
2018-03-21T01:00:03.088Z,16.10
2018-03-21T01:02:29.730Z,16.17
2018-03-21T01:04:56.360Z,17.48
2018-03-21T01:07:23.002Z,17.15
2018-03-21T01:09:49.645Z,17.40
2018-03-21T01:12:16.389Z,17.10
2018-03-21T01:14:43.120Z,18.23
2018-03-21T01:17:09.747Z,16.70
2018-03-21T01:19:36.406Z,18.20
2018-03-21T01:22:03.032Z,18.35
2018-03-21T01:24:29.660Z,18.30
2018-03-21T01:26:56.305Z,18.30
2018-03-21T01:29:22.961Z,18.83
2018-03-21T01:31:49.596Z,18.70
2018-03-21T01:34:16.220Z,19.67
2018-03-21T01:36:42.840Z,19.08
2018-03-21T01:39:09.487Z,19.90
2018-03-21T01:41:36.120Z,20.20
2018-03-21T01:44:02.755Z,20.35
2018-03-21T01:46:29.392Z,19.83
2018-03-21T01:48:56.021Z,20.62
2018-03-21T01:51:22.739Z,21.77
2018-03-21T01:53:49.451Z,20.60
2018-03-21T01:56:16.079Z,20.15
2018-03-21T01:58:42.720Z,21.02
2018-03-21T02:01:09.344Z,21.87
2018-03-21T02:03:35.971Z,20.50
2018-03-21T02:06:02.612Z,21.80
2018-03-21T02:08:29.244Z,19.98
2018-03-21T02:10:55.878Z,18.98
2018-03-21T02:13:22.531Z,17.85
2018-03-21T02:15:49.163Z,19.27
2018-03-21T02:18:15.788Z,17.42
2018-03-21T02:20:42.432Z,17.27
2018-03-21T02:23:09.054Z,17.37
2018-03-21T02:25:35.761Z,17.67
2018-03-21T02:28:02.504Z,17.55
2018-03-21T02:30:29.132Z,17.75
2018-03-21T02:32:55.768Z,19.12
2018-03-21T02:35:22.408Z,18.87
2018-03-21T02:37:49.040Z,18.37
2018-03-21T02:40:15.673Z,16.45
2018-03-21T02:42:42.319Z,17.58
2018-03-21T02:45:08.991Z,18.58
2018-03-21T02:47:35.720Z,18.23
2018-03-21T02:50:02.465Z,18.37
2018-03-21T02:52:29.102Z,18.25
2018-03-21T02:54:55.732Z,18.62
2018-03-21T02:57:22.476Z,18.58
2018-03-21T02:59:49.223Z,18.30
2018-03-21T03:02:15.847Z,17.90
2018-03-21T03:04:42.496Z,18.77
2018-03-21T03:07:09.128Z,18.37
2018-03-21T03:09:35.752Z,18.92
2018-03-21T03:12:02.404Z,19.15
2018-03-21T03:14:29.044Z,21.55
2018-03-21T03:16:55.676Z,22.75
2018-03-21T03:19:22.332Z,21.92
2018-03-21T03:21:48.961Z,21.52
2018-03-21T03:24:15.598Z,22.30
2018-03-21T03:26:42.248Z,23.30
2018-03-21T03:29:08.876Z,25.70
2018-03-21T03:31:35.521Z,31.50
2018-03-21T03:34:02.160Z,38.10
2018-03-21T03:36:28.789Z,43.97
2018-03-21T03:38:55.448Z,50.28
2018-03-21T03:41:22.097Z,47.33
2018-03-21T03:43:48.826Z,41.17
2018-03-21T03:46:15.452Z,36.05
2018-03-21T03:48:42.100Z,33.95
2018-03-21T03:51:08.734Z,29.25
2018-03-21T03:53:35.362Z,24.75
2018-03-21T03:56:02.115Z,23.38
2018-03-21T03:58:28.745Z,23.70
2018-03-21T04:00:55.382Z,22.65
2018-03-21T04:03:22.045Z,21.27
2018-03-21T04:05:48.675Z,23.58
2018-03-21T04:08:15.308Z,29.02
2018-03-21T04:10:41.956Z,26.77
2018-03-21T04:13:08.614Z,24.35
2018-03-21T04:15:35.346Z,21.35
2018-03-21T04:18:01.992Z,21.67
2018-03-21T04:20:28.620Z,22.27
2018-03-21T04:22:55.257Z,21.98
2018-03-21T04:25:22.000Z,22.30
2018-03-21T04:27:48.741Z,21.35
2018-03-21T04:30:15.375Z,22.75
2018-03-21T04:32:42.041Z,22.35
2018-03-21T04:35:08.677Z,23.27
2018-03-21T04:37:35.308Z,23.33
2018-03-21T04:40:01.958Z,21.20
2018-03-21T04:42:28.584Z,23.75
2018-03-21T04:44:55.221Z,22.85
2018-03-21T04:47:21.876Z,21.67
2018-03-21T04:49:48.500Z,23.42
2018-03-21T04:52:15.125Z,22.70
2018-03-21T04:54:41.777Z,21.27
2018-03-21T04:57:08.404Z,23.80
2018-03-21T04:59:35.035Z,23.65
2018-03-21T05:02:01.695Z,23.15
2018-03-21T05:04:28.337Z,21.77
2018-03-21T05:06:54.960Z,23.00
2018-03-21T05:09:21.708Z,21.85
2018-03-21T05:11:48.446Z,22.00
2018-03-21T05:14:15.085Z,22.90
2018-03-21T05:16:41.728Z,21.73
2018-03-21T05:19:08.492Z,23.48
2018-03-21T05:21:35.233Z,22.00
2018-03-21T05:24:01.958Z,23.80
2018-03-21T05:26:28.589Z,23.05
2018-03-21T05:28:55.221Z,23.05
2018-03-21T05:31:21.864Z,24.80
2018-03-21T05:33:48.484Z,24.73
2018-03-21T05:36:15.121Z,25.00
2018-03-21T05:38:41.763Z,25.20
2018-03-21T05:41:08.452Z,25.73
2018-03-21T05:43:35.164Z,24.67
2018-03-21T05:46:01.813Z,24.05
2018-03-21T05:48:28.544Z,23.58
2018-03-21T05:50:55.171Z,23.00
2018-03-21T05:53:21.925Z,22.90
2018-03-21T05:55:48.659Z,24.12
2018-03-21T05:58:15.311Z,25.73
2018-03-21T06:00:41.969Z,31.25
2018-03-21T06:03:08.713Z,31.35
2018-03-21T06:05:35.433Z,34.05
2018-03-21T06:08:02.194Z,30.20
2018-03-21T06:10:28.825Z,31.55
2018-03-21T06:12:55.463Z,29.50
2018-03-21T06:15:22.215Z,25.62
2018-03-21T06:17:48.955Z,26.70
2018-03-21T06:20:15.676Z,26.25
2018-03-21T06:22:42.347Z,25.27
2018-03-21T06:25:09.049Z,27.35
2018-03-21T06:27:35.684Z,29.85
2018-03-21T06:30:02.324Z,30.25
2018-03-21T06:32:29.000Z,28.58
2018-03-21T06:34:55.595Z,27.90
2018-03-21T06:37:22.259Z,27.00
2018-03-21T06:39:48.892Z,25.15
2018-03-21T06:42:15.525Z,26.85
2018-03-21T06:44:42.210Z,21.45
2018-03-21T06:47:08.899Z,20.40
2018-03-21T06:49:35.528Z,21.30
2018-03-21T06:52:02.189Z,21.25
2018-03-21T06:54:28.811Z,22.98
2018-03-21T06:56:55.448Z,25.88
2018-03-21T06:59:22.092Z,25.52
2018-03-21T07:01:48.735Z,22.00
2018-03-21T07:04:15.364Z,21.05
2018-03-21T07:06:42.008Z,21.85
2018-03-21T07:09:08.641Z,20.02
2018-03-21T07:11:35.297Z,20.02
2018-03-21T07:14:07.777Z,19.48
2018-03-21T07:16:53.096Z,19.75
2018-03-21T07:19:19.742Z,21.37
2018-03-21T07:21:46.444Z,18.70
2018-03-21T07:24:13.077Z,19.27
2018-03-21T07:26:39.836Z,18.25
2018-03-21T07:29:06.474Z,19.08
2018-03-21T07:31:33.114Z,17.05
2018-03-21T07:33:59.792Z,19.85
2018-03-21T07:36:26.433Z,19.10
2018-03-21T07:38:53.098Z,18.10
2018-03-21T07:41:19.752Z,17.52
2018-03-21T07:43:46.390Z,19.83
2018-03-21T07:46:13.129Z,20.35
2018-03-21T07:48:39.781Z,20.95
2018-03-21T07:51:06.500Z,20.70
2018-03-21T07:53:33.124Z,18.00
2018-03-21T07:55:59.772Z,16.02
2018-03-21T07:58:26.452Z,17.95
2018-03-21T08:00:53.081Z,17.75
2018-03-21T08:03:19.728Z,16.55
2018-03-21T08:05:46.368Z,14.77
2018-03-21T08:08:13.018Z,14.68
2018-03-21T08:10:39.672Z,14.82
2018-03-21T08:13:06.305Z,15.98
2018-03-21T08:15:32.941Z,15.75
2018-03-21T08:17:59.594Z,15.00
2018-03-21T08:20:26.232Z,13.75
2018-03-21T08:22:52.920Z,14.80
2018-03-21T08:25:19.579Z,14.40
2018-03-21T08:27:46.302Z,13.27
2018-03-21T08:30:12.940Z,13.68
2018-03-21T08:32:39.584Z,13.30
2018-03-21T08:35:06.324Z,12.20
2018-03-21T08:37:32.957Z,12.95
2018-03-21T08:39:59.629Z,11.93
2018-03-21T08:42:26.265Z,11.18
2018-03-21T08:44:52.976Z,12.55
2018-03-21T08:47:19.723Z,10.65
2018-03-21T08:49:46.456Z,12.68
2018-03-21T08:52:13.328Z,11.05
2018-03-21T08:54:39.972Z,10.65
2018-03-21T08:57:06.611Z,11.95
2018-03-21T08:59:33.352Z,12.35
2018-03-21T09:02:00.068Z,11.23
2018-03-21T09:04:26.812Z,10.88
2018-03-21T09:06:53.444Z,11.02
2018-03-21T09:09:20.083Z,11.75
2018-03-21T09:11:46.722Z,12.00
2018-03-21T09:14:13.357Z,12.40
2018-03-21T09:16:40.018Z,11.57
2018-03-21T09:19:06.745Z,11.95
2018-03-21T09:21:33.512Z,11.57
2018-03-21T09:24:00.151Z,11.68
2018-03-21T09:26:26.893Z,11.68
2018-03-21T09:28:53.530Z,11.35
2018-03-21T09:31:20.168Z,10.35
2018-03-21T09:33:46.800Z,11.63
2018-03-21T09:36:13.428Z,8.90
2018-03-21T09:38:40.083Z,9.90
2018-03-21T09:41:06.722Z,10.80
2018-03-21T09:43:33.355Z,11.12
2018-03-21T09:46:00.989Z,10.23
2018-03-21T09:48:27.616Z,11.60
2018-03-21T09:50:54.275Z,10.52
2018-03-21T09:53:21.021Z,9.55
2018-03-21T09:55:47.700Z,9.70
2018-03-21T09:58:14.296Z,9.90
2018-03-21T10:00:41.074Z,9.23
2018-03-21T10:03:07.785Z,9.20
2018-03-21T10:05:34.448Z,9.80
2018-03-21T10:08:01.169Z,10.85
2018-03-21T10:10:27.809Z,12.35
2018-03-21T10:12:54.433Z,10.82
2018-03-21T10:15:21.069Z,9.80
2018-03-21T10:17:47.721Z,9.15
2018-03-21T10:20:14.348Z,9.40
2018-03-21T10:22:40.993Z,9.50
2018-03-21T10:25:07.740Z,10.00
2018-03-21T10:27:34.373Z,9.13
2018-03-21T10:30:01.004Z,8.95
2018-03-21T10:32:27.629Z,9.65
2018-03-21T10:34:54.252Z,9.55
2018-03-21T10:37:20.883Z,8.88
2018-03-21T10:39:47.496Z,8.68
2018-03-21T10:42:14.135Z,8.80
2018-03-21T10:44:40.769Z,8.13
2018-03-21T10:47:07.385Z,9.02
2018-03-21T10:49:34.003Z,8.00
2018-03-21T10:52:00.671Z,8.35
2018-03-21T10:54:27.300Z,8.85
2018-03-21T10:56:53.961Z,8.15
2018-03-21T10:59:20.596Z,8.52
2018-03-21T11:01:47.212Z,8.07
2018-03-21T11:04:13.827Z,8.00
2018-03-21T11:06:40.455Z,8.50
2018-03-21T11:09:07.141Z,7.35
2018-03-21T11:11:33.756Z,8.43
2018-03-21T11:14:00.387Z,8.95
2018-03-21T11:16:27.059Z,9.30
2018-03-21T11:18:53.685Z,7.87
2018-03-21T11:21:20.316Z,6.72
2018-03-21T11:23:46.933Z,7.97
2018-03-21T11:26:13.548Z,7.50
2018-03-21T11:28:40.253Z,8.40
2018-03-21T11:31:06.872Z,7.25
2018-03-21T11:33:33.528Z,7.95
2018-03-21T11:36:00.263Z,6.85
2018-03-21T11:38:26.907Z,7.72
2018-03-21T11:40:53.524Z,7.70
2018-03-21T11:43:20.164Z,6.85
2018-03-21T11:45:46.843Z,6.75
2018-03-21T11:48:13.565Z,5.78
2018-03-21T11:50:40.304Z,5.15
2018-03-21T11:53:06.927Z,7.20
2018-03-21T11:55:33.553Z,4.90
2018-03-21T11:58:00.188Z,4.10
2018-03-21T12:00:26.820Z,5.50
2018-03-21T12:02:53.583Z,8.73
2018-03-21T12:05:20.308Z,9.57
2018-03-21T12:07:47.637Z,8.13
2018-03-21T12:10:14.578Z,15.10
2018-03-21T12:12:42.290Z,42.47
2018-03-21T12:15:09.290Z,6.75
2018-03-21T12:17:37.175Z,6.25
2018-03-21T12:20:03.881Z,9.05
2018-03-21T12:22:30.516Z,16.10
2018-03-21T12:24:57.140Z,4.05
2018-03-21T12:27:23.800Z,4.65
2018-03-21T12:29:50.656Z,7.60
2018-03-21T12:32:17.369Z,6.80
2018-03-21T12:34:44.017Z,5.12
2018-03-21T12:37:10.641Z,4.15
2018-03-21T12:39:37.288Z,5.60
2018-03-21T12:42:03.925Z,7.40
2018-03-21T12:44:30.585Z,4.87
2018-03-21T12:46:57.222Z,12.63
2018-03-21T12:49:23.948Z,4.15
2018-03-21T12:51:50.590Z,7.05
2018-03-21T12:54:17.222Z,9.40
2018-03-21T12:56:43.873Z,13.80
2018-03-21T12:59:10.506Z,4.07
2018-03-21T13:01:37.195Z,3.50
2018-03-21T13:04:03.893Z,2.80
2018-03-21T13:06:30.633Z,12.63
2018-03-21T13:08:57.278Z,3.00
2018-03-21T13:11:23.900Z,4.90
2018-03-21T13:13:50.524Z,21.00
2018-03-21T13:16:17.200Z,22.48
2018-03-21T13:18:43.919Z,13.50
2018-03-21T13:21:10.641Z,19.85
2018-03-21T13:23:37.309Z,10.30
2018-03-21T13:26:04.137Z,27.30
2018-03-21T13:28:30.717Z,4.30
2018-03-21T13:30:57.351Z,2.80
2018-03-21T13:33:24.065Z,4.60
2018-03-21T13:35:50.680Z,3.78
2018-03-21T13:38:17.371Z,5.45
2018-03-21T13:40:44.097Z,41.63
2018-03-21T13:43:10.713Z,7.32
2018-03-21T13:45:37.341Z,4.78
2018-03-21T13:48:03.985Z,4.55
2018-03-21T13:50:30.599Z,3.50
2018-03-21T13:52:57.227Z,2.80
2018-03-21T13:55:25.115Z,4.12
2018-03-21T13:57:51.781Z,14.30
2018-03-21T14:00:18.415Z,11.77
2018-03-21T14:02:45.181Z,9.77
2018-03-21T14:05:11.816Z,15.48
2018-03-21T14:07:38.561Z,17.25
2018-03-21T14:10:05.208Z,24.00
2018-03-21T14:12:31.847Z,12.98
2018-03-21T14:14:58.472Z,2.35
2018-03-21T14:17:26.958Z,7.97
2018-03-21T14:19:53.613Z,3.65
2018-03-21T14:22:20.257Z,2.00
2018-03-21T14:24:46.914Z,10.27
2018-03-21T14:27:13.608Z,16.42
2018-03-21T14:29:40.225Z,2.47
2018-03-21T14:32:06.886Z,4.15
2018-03-21T14:34:33.520Z,2.45
2018-03-21T14:37:00.136Z,4.57
2018-03-21T14:39:26.786Z,14.13
2018-03-21T14:41:53.408Z,2.50
2018-03-21T14:44:20.072Z,19.65
2018-03-21T14:46:46.716Z,26.33
2018-03-21T14:49:13.351Z,8.88
2018-03-21T14:51:39.982Z,15.93
2018-03-21T14:54:06.637Z,95.65
2018-03-21T14:56:33.265Z,22.70
2018-03-21T14:58:59.940Z,62.15
2018-03-21T15:01:26.588Z,16.87
2018-03-21T15:03:53.216Z,35.88
2018-03-21T15:06:19.861Z,10.02
2018-03-21T15:08:46.518Z,10.38
2018-03-21T15:11:13.140Z,5.57
2018-03-21T15:13:39.775Z,18.08
2018-03-21T15:16:06.416Z,8.32
2018-03-21T15:18:33.124Z,4.55
2018-03-21T15:20:59.756Z,11.25
2018-03-21T15:23:26.500Z,1.95
2018-03-21T15:25:53.123Z,3.15
2018-03-21T15:28:19.780Z,2.60
2018-03-21T15:30:46.562Z,5.18
2018-03-21T15:33:13.500Z,11.00
2018-03-21T15:35:40.651Z,4.75
2018-03-21T15:38:07.355Z,6.47
2018-03-21T15:40:34.153Z,4.47
2018-03-21T15:43:00.804Z,3.00
2018-03-21T15:45:27.744Z,3.10
2018-03-21T15:47:54.441Z,5.80
2018-03-21T15:50:21.213Z,3.08
2018-03-21T15:52:47.945Z,2.53
2018-03-21T15:55:14.569Z,2.55
2018-03-21T15:57:41.210Z,3.00
2018-03-21T16:00:07.861Z,2.15
2018-03-21T16:02:34.580Z,2.83
2018-03-21T16:05:01.213Z,2.47
2018-03-21T16:07:27.861Z,2.75
2018-03-21T16:09:54.592Z,2.45
2018-03-21T16:12:21.245Z,2.33
2018-03-21T16:14:47.875Z,2.85
2018-03-21T16:17:14.522Z,2.25
2018-03-21T16:19:41.153Z,2.53
2018-03-21T16:22:07.805Z,2.35
2018-03-21T16:24:34.559Z,2.65
2018-03-21T16:27:01.268Z,2.50
2018-03-21T16:29:27.909Z,3.50
2018-03-21T16:31:54.548Z,2.80
2018-03-21T16:34:21.172Z,3.55
2018-03-21T16:36:47.843Z,5.35
2018-03-21T16:39:14.500Z,2.80
2018-03-21T16:41:41.116Z,2.60
2018-03-21T16:44:07.744Z,2.30
2018-03-21T16:46:34.369Z,1.80
2018-03-21T16:49:01.025Z,2.80
2018-03-21T16:51:27.669Z,3.37
2018-03-21T16:53:54.409Z,3.10
2018-03-21T16:56:21.049Z,3.80
2018-03-21T16:58:47.691Z,3.35
2018-03-21T17:01:14.421Z,3.78
2018-03-21T17:03:41.063Z,4.55
2018-03-21T17:06:07.706Z,4.22
2018-03-21T17:08:34.324Z,4.35
2018-03-21T17:11:00.953Z,4.03
2018-03-21T17:13:27.601Z,4.43
2018-03-21T17:15:54.265Z,4.50
2018-03-21T17:18:20.892Z,5.45
2018-03-21T17:20:47.636Z,5.15
2018-03-21T17:23:14.277Z,5.90
2018-03-21T17:25:40.921Z,6.97
2018-03-21T17:28:07.563Z,7.80
2018-03-21T17:30:34.308Z,6.03
2018-03-21T17:33:01.049Z,6.57
2018-03-21T17:35:27.694Z,6.87
2018-03-21T17:37:54.329Z,6.87
2018-03-21T17:40:20.958Z,7.47
2018-03-21T17:42:47.657Z,8.02
2018-03-21T17:45:14.281Z,8.82
2018-03-21T17:47:40.976Z,10.20
2018-03-21T17:50:07.717Z,8.90
2018-03-21T17:52:34.361Z,9.52
2018-03-21T17:55:01.022Z,9.05
2018-03-21T17:57:27.736Z,8.93
2018-03-21T17:59:54.365Z,7.82
2018-03-21T18:02:20.984Z,8.18
2018-03-21T18:04:47.630Z,9.68
2018-03-21T18:07:14.298Z,8.88
2018-03-21T18:09:40.916Z,8.48
2018-03-21T18:12:07.562Z,8.07
2018-03-21T18:14:34.186Z,8.45
2018-03-21T18:17:00.808Z,8.18
2018-03-21T18:19:27.451Z,8.68
2018-03-21T18:21:54.133Z,8.65
2018-03-21T18:24:20.753Z,8.82
2018-03-21T18:26:47.404Z,9.18
2018-03-21T18:29:14.046Z,9.00
2018-03-21T18:31:40.692Z,9.50
2018-03-21T18:34:07.419Z,9.57
2018-03-21T18:36:34.040Z,9.48
2018-03-21T18:39:00.709Z,10.25
2018-03-21T18:41:27.368Z,10.45
2018-03-21T18:43:53.997Z,10.15
2018-03-21T18:46:20.626Z,10.82
2018-03-21T18:48:47.281Z,18.60
2018-03-21T18:51:14.000Z,22.35
2018-03-21T18:53:40.769Z,21.92
2018-03-21T18:56:07.410Z,32.58
2018-03-21T18:58:34.046Z,36.88
2018-03-21T19:01:00.677Z,28.95
2018-03-21T19:03:27.422Z,27.30
2018-03-21T19:05:54.136Z,30.35
2018-03-21T19:08:20.769Z,24.73
2018-03-21T19:10:47.421Z,18.25
2018-03-21T19:13:20.145Z,14.50
2018-03-21T19:15:40.905Z,19.52
2018-03-21T19:18:07.649Z,24.33
2018-03-21T19:20:34.281Z,21.73
2018-03-21T19:23:00.908Z,27.73
2018-03-21T19:25:27.553Z,33.63
2018-03-21T19:27:54.201Z,28.98
2018-03-21T19:30:20.824Z,30.52
2018-03-21T19:32:47.472Z,33.40
2018-03-21T19:35:14.124Z,32.83
2018-03-21T19:37:40.888Z,28.15
2018-03-21T19:40:07.608Z,22.20
2018-03-21T19:42:34.345Z,23.80
2018-03-21T19:45:01.042Z,21.23
2018-03-21T19:47:27.701Z,22.35
2018-03-21T19:49:54.359Z,19.37
2018-03-21T19:52:20.994Z,18.33
2018-03-21T19:54:47.653Z,16.35
2018-03-21T19:57:14.384Z,11.98
2018-03-21T19:59:41.007Z,11.80
2018-03-21T20:02:07.761Z,10.88
2018-03-21T20:04:34.391Z,18.95
2018-03-21T20:07:01.021Z,32.22
2018-03-21T20:09:27.657Z,32.28
2018-03-21T20:11:54.284Z,36.58
2018-03-21T20:14:20.914Z,29.95
2018-03-21T20:16:47.726Z,75.53
2018-03-21T20:19:14.350Z,27.48
2018-03-21T20:21:40.981Z,13.10
2018-03-21T20:24:07.642Z,12.02
2018-03-21T20:26:34.368Z,11.88
2018-03-21T20:29:01.000Z,15.57
2018-03-21T20:31:27.644Z,19.87
2018-03-21T20:33:54.373Z,20.00
2018-03-21T20:36:21.005Z,15.60
2018-03-21T20:38:47.657Z,15.45
2018-03-21T20:41:14.289Z,25.27
2018-03-21T20:43:40.912Z,19.75
2018-03-21T20:46:07.552Z,16.75
2018-03-21T20:48:34.192Z,14.90
2018-03-21T20:51:00.898Z,17.45
2018-03-21T20:53:27.521Z,19.92
2018-03-21T20:55:54.156Z,28.75
2018-03-21T20:58:20.867Z,23.08
2018-03-21T21:00:47.509Z,16.58
2018-03-21T21:03:14.141Z,16.95
2018-03-21T21:05:40.793Z,17.12
2018-03-21T21:08:07.529Z,16.75
2018-03-21T21:10:34.169Z,16.77
2018-03-21T21:13:00.802Z,15.32
2018-03-21T21:15:27.456Z,15.60
2018-03-21T21:17:54.081Z,15.35
2018-03-21T21:20:20.724Z,15.43
2018-03-21T21:22:47.460Z,15.50
2018-03-21T21:25:14.092Z,15.07
2018-03-21T21:27:40.740Z,14.93
2018-03-21T21:30:07.489Z,14.45
2018-03-21T21:32:34.116Z,14.23
2018-03-21T21:35:00.766Z,15.98
2018-03-21T21:37:27.421Z,17.02
2018-03-21T21:39:54.048Z,16.55
2018-03-21T21:42:20.682Z,14.98
2018-03-21T21:44:47.321Z,15.20
2018-03-21T21:47:13.949Z,16.52
2018-03-21T21:49:40.600Z,15.80
2018-03-21T21:52:07.243Z,15.63
2018-03-21T21:54:33.976Z,16.08
2018-03-21T21:57:00.603Z,15.30
2018-03-21T21:59:27.244Z,15.00
2018-03-21T22:01:53.868Z,15.60
2018-03-21T22:04:20.492Z,17.62
2018-03-21T22:06:47.132Z,15.23
2018-03-21T22:09:13.814Z,15.85
2018-03-21T22:11:40.453Z,16.23
2018-03-21T22:14:07.098Z,15.68
2018-03-21T22:16:33.858Z,17.85
2018-03-21T22:19:00.485Z,15.63
2018-03-21T22:21:27.136Z,16.05
2018-03-21T22:23:53.763Z,19.48
2018-03-21T22:26:20.393Z,18.50
2018-03-21T22:28:47.031Z,16.40
2018-03-21T22:31:13.655Z,17.08
2018-03-21T22:33:40.335Z,17.23
2018-03-21T22:36:06.988Z,17.40
2018-03-21T22:38:33.691Z,18.62
2018-03-21T22:41:00.320Z,18.00
2018-03-21T22:43:26.960Z,17.92
2018-03-21T22:45:53.598Z,16.40
2018-03-21T22:48:20.219Z,16.90
2018-03-21T22:50:46.855Z,15.13
2018-03-21T22:53:13.520Z,16.27
2018-03-21T22:55:40.143Z,16.50
2018-03-21T22:58:06.802Z,16.70
2018-03-21T23:00:33.429Z,17.17
2018-03-21T23:03:00.070Z,15.68
2018-03-21T23:05:26.718Z,16.08
2018-03-21T23:07:53.349Z,17.50
2018-03-21T23:10:19.981Z,17.83
2018-03-21T23:12:46.661Z,18.52
2018-03-21T23:15:13.298Z,16.80
2018-03-21T23:17:40.008Z,19.17
2018-03-21T23:20:06.654Z,17.45
2018-03-21T23:22:33.391Z,18.75
2018-03-21T23:25:00.016Z,17.65
2018-03-21T23:27:26.675Z,16.23
2018-03-21T23:29:53.299Z,17.58
2018-03-21T23:32:19.961Z,17.75
2018-03-21T23:34:46.697Z,16.83
2018-03-21T23:37:13.435Z,18.98
2018-03-21T23:39:40.064Z,17.92
2018-03-21T23:42:06.717Z,17.55
2018-03-21T23:44:33.350Z,16.15
2018-03-21T23:46:59.981Z,16.15
2018-03-21T23:49:26.628Z,16.90
2018-03-21T23:51:53.276Z,15.23
2018-03-21T23:54:19.917Z,17.23
2018-03-21T23:56:46.572Z,16.33
2018-03-21T23:59:13.314Z,16.70
